Time;durP1;ratioP1;P1;durP2;ratioP2;P2;SDS_P1;SDS_P2;PMS_P1;PMS_P2;Temp;Humidity;BMP_temperature;BMP_pressure;BME280_temperature;BME280_humidity;BME280_pressure;Samples;Min_cycle;Max_cycle;Signal;HPM_P1;HPM_P2
2023/04/16 00:00:02;;;;;;;12.23;5.45;;;;;;;7.08;99.20;102073.66;4988984;28;20038;-91
2023/04/16 00:02:36;;;;;;;12.73;3.67;;;;;;;7.12;99.74;102078.00;4989929;28;20534;-89
2023/04/16 00:05:02;;;;;;;12.10;3.80;;;;;;;7.06;99.95;102064.72;4973510;28;20451;-89
2023/04/16 00:07:28;;;;;;;7.07;3.70;;;;;;;7.08;98.85;102072.78;4990448;28;20019;-88
2023/04/16 00:09:54;;;;;;;8.65;3.55;;;;;;;7.12;99.11;102075.31;4999376;28;20064;-87
2023/04/16 00:12:20;;;;;;;9.20;4.10;;;;;;;7.08;99.35;102070.94;5007511;28;20073;-88
2023/04/16 00:14:45;;;;;;;9.30;4.65;;;;;;;7.13;99.67;102076.19;4991333;28;20062;-88
2023/04/16 00:17:11;;;;;;;8.25;4.82;;;;;;;7.12;100.00;102080.72;4993255;28;20042;-87
2023/04/16 00:19:37;;;;;;;8.07;3.63;;;;;;;7.10;100.00;102073.63;4991784;28;20084;-88
2023/04/16 00:22:03;;;;;;;9.10;4.05;;;;;;;7.12;100.00;102079.84;5008828;28;20088;-88
2023/04/16 00:24:28;;;;;;;14.23;5.00;;;;;;;7.11;100.00;102078.06;5009183;28;20031;-87
2023/04/16 00:26:54;;;;;;;8.70;4.43;;;;;;;7.06;99.58;102066.56;4992036;28;20474;-88
2023/04/16 00:29:20;;;;;;;14.88;4.57;;;;;;;7.08;100.00;102062.81;4974537;28;20030;-89
2023/04/16 00:31:46;;;;;;;9.65;3.58;;;;;;;7.11;100.00;102068.13;4989064;28;20058;-86
2023/04/16 00:34:13;;;;;;;16.65;5.00;;;;;;;7.13;100.00;102071.69;4989406;28;20028;-88
2023/04/16 00:36:38;;;;;;;18.75;5.13;;;;;;;7.16;100.00;102085.06;4990322;28;20124;-90
2023/04/16 00:39:04;;;;;;;8.88;4.38;;;;;;;7.13;100.00;102078.88;4989641;28;20045;-87
2023/04/16 00:41:29;;;;;;;12.50;5.03;;;;;;;7.05;100.00;102067.50;4989938;28;20105;-87
2023/04/16 00:43:55;;;;;;;9.93;4.05;;;;;;;7.06;100.00;102074.66;4994071;28;20064;-89
2023/04/16 00:46:22;;;;;;;9.93;5.25;;;;;;;7.11;100.00;102073.53;4997141;28;20038;-88
2023/04/16 00:48:50;;;;;;;14.95;5.47;;;;;;;7.07;100.00;102065.59;4977826;28;20382;-88
2023/04/16 00:51:17;;;;;;;12.13;5.60;;;;;;;7.04;100.00;102066.63;5008965;28;20029;-88
2023/04/16 00:53:44;;;;;;;16.42;5.90;;;;;;;7.08;100.00;102075.47;4983940;28;20097;-87
2023/04/16 00:56:10;;;;;;;11.07;5.30;;;;;;;7.04;100.00;102072.03;4972213;28;20061;-88
2023/04/16 00:58:38;;;;;;;10.88;6.00;;;;;;;7.07;100.00;102068.31;4974634;28;20030;-91
2023/04/16 01:01:04;;;;;;;13.20;5.47;;;;;;;7.10;100.00;102070.91;4983015;28;20046;-88
2023/04/16 01:03:35;;;;;;;11.60;6.57;;;;;;;7.12;100.00;102066.31;4975128;28;20026;-90
2023/04/16 01:06:01;;;;;;;14.57;5.85;;;;;;;7.10;100.00;102068.22;5008997;28;20052;-88
2023/04/16 01:08:27;;;;;;;8.63;6.38;;;;;;;7.12;100.00;102067.19;5009731;28;20435;-86
2023/04/16 01:10:52;;;;;;;12.77;6.30;;;;;;;7.16;100.00;102073.38;5008177;28;20277;-86
2023/04/16 01:13:20;;;;;;;12.15;5.85;;;;;;;7.15;100.00;102071.63;4999649;28;20348;-87
2023/04/16 01:15:46;;;;;;;9.30;5.80;;;;;;;7.11;100.00;102073.53;4987488;28;20133;-90
2023/04/16 01:18:15;;;;;;;13.93;6.07;;;;;;;7.11;100.00;102069.97;4972744;28;20128;-88
2023/04/16 01:20:40;;;;;;;14.38;5.82;;;;;;;7.13;100.00;102063.56;4978776;28;20034;-88
2023/04/16 01:23:06;;;;;;;9.88;6.13;;;;;;;7.10;100.00;102054.69;4991930;28;20450;-89
2023/04/16 01:25:31;;;;;;;13.65;6.85;;;;;;;7.10;100.00;102060.09;4988611;28;20582;-86
2023/04/16 01:27:58;;;;;;;23.17;6.25;;;;;;;7.16;100.00;102063.44;4976425;28;20034;-87
2023/04/16 01:30:24;;;;;;;12.52;6.50;;;;;;;7.19;100.00;102067.84;4974253;28;20037;-87
2023/04/16 01:33:06;;;;;;;10.10;5.80;;;;;;;7.21;100.00;102067.78;4988431;28;20537;-88
2023/04/16 01:35:31;;;;;;;9.20;6.43;;;;;;;7.22;100.00;102069.53;4988159;28;20038;-86
2023/04/16 01:37:56;;;;;;;11.52;6.15;;;;;;;7.23;100.00;102068.59;4989453;28;20041;-89
2023/04/16 01:40:22;;;;;;;14.95;5.55;;;;;;;7.26;100.00;102073.91;4988261;28;20505;-88
2023/04/16 01:42:47;;;;;;;12.38;6.75;;;;;;;7.25;100.00;102070.31;4988407;28;20029;-88
2023/04/16 01:45:13;;;;;;;13.10;6.15;;;;;;;7.27;100.00;102075.66;5005625;28;20041;-89
2023/04/16 01:47:39;;;;;;;13.68;6.57;;;;;;;7.29;100.00;102066.53;5005077;28;20096;-89
2023/04/16 01:50:05;;;;;;;11.05;6.38;;;;;;;7.28;100.00;102080.16;4972021;28;20402;-88
2023/04/16 01:52:31;;;;;;;10.55;6.47;;;;;;;7.28;100.00;102064.78;5007015;28;20465;-92
2023/04/16 01:54:56;;;;;;;10.23;6.28;;;;;;;7.28;100.00;102072.91;5007555;28;20048;-87
2023/04/16 01:57:21;;;;;;;10.63;6.03;;;;;;;7.28;100.00;102078.31;4988554;28;20393;-87
2023/04/16 01:59:48;;;;;;;13.73;5.63;;;;;;;7.34;100.00;102069.94;4982126;28;20523;-87
2023/04/16 02:02:15;;;;;;;12.10;6.78;;;;;;;7.34;100.00;102074.50;5007404;28;20049;-88
2023/04/16 02:04:43;;;;;;;12.98;6.55;;;;;;;7.33;100.00;102076.31;5008290;28;20389;-87
2023/04/16 02:07:08;;;;;;;13.75;6.68;;;;;;;7.31;100.00;102070.06;4991968;28;20099;-88
2023/04/16 02:09:35;;;;;;;11.43;6.68;;;;;;;7.33;100.00;102076.31;4975985;28;20120;-87
2023/04/16 02:12:03;;;;;;;14.15;6.80;;;;;;;7.30;100.00;102067.41;4997894;28;20034;-88
2023/04/16 02:14:29;;;;;;;18.27;6.72;;;;;;;7.32;100.00;102070.94;5004945;28;20535;-86
2023/04/16 02:16:55;;;;;;;13.20;6.28;;;;;;;7.33;100.00;102064.59;5006841;28;20052;-85
2023/04/16 02:19:37;;;;;;;14.38;6.07;;;;;;;7.34;100.00;102071.78;5007440;28;20034;-88
2023/04/16 02:22:03;;;;;;;12.95;5.47;;;;;;;7.35;100.00;102066.28;4978480;28;20042;-88
2023/04/16 02:24:28;;;;;;;12.88;5.60;;;;;;;7.37;100.00;102071.66;4971198;28;20105;-89
2023/04/16 02:26:55;;;;;;;8.43;4.90;;;;;;;7.38;100.00;102073.44;4971163;28;20058;-86
2023/04/16 02:29:21;;;;;;;11.05;5.28;;;;;;;7.33;100.00;102065.47;4994352;28;20064;-87
2023/04/16 02:31:53;;;;;;;12.90;4.85;;;;;;;7.39;100.00;102075.19;4993499;28;20105;-87
2023/04/16 02:34:19;;;;;;;13.10;5.13;;;;;;;7.39;100.00;102073.34;4989878;28;20140;-88
2023/04/16 02:36:44;;;;;;;11.20;5.13;;;;;;;7.38;100.00;102068.00;5006778;28;20034;-86
2023/04/16 02:39:10;;;;;;;8.50;4.90;;;;;;;7.37;100.00;102069.84;4991540;28;20026;-89
2023/04/16 02:41:35;;;;;;;13.73;4.78;;;;;;;7.38;100.00;102068.00;5006605;28;20537;-86
2023/04/16 02:44:01;;;;;;;9.43;4.78;;;;;;;7.38;100.00;102070.72;4993063;28;20260;-88
2023/04/16 02:46:26;;;;;;;10.60;4.57;;;;;;;7.39;100.00;102065.22;4970428;28;20088;-86
2023/04/16 02:48:52;;;;;;;10.13;4.65;;;;;;;7.42;100.00;102075.06;4971631;28;20046;-88
2023/04/16 02:51:17;;;;;;;10.52;4.97;;;;;;;7.44;100.00;102075.88;4971194;28;20038;-87
2023/04/16 02:53:44;;;;;;;13.75;5.20;;;;;;;7.43;100.00;102082.25;4999235;28;20046;-91
2023/04/16 02:56:11;;;;;;;14.70;5.35;;;;;;;7.42;100.00;102080.50;5001679;28;20097;-88
2023/04/16 02:58:37;;;;;;;10.55;5.28;;;;;;;7.43;100.00;102084.06;4987213;28;20497;-86
2023/04/16 03:01:03;;;;;;;10.82;5.50;;;;;;;7.39;100.00;102083.31;4986036;28;20030;-88
2023/04/16 03:03:28;;;;;;;11.15;5.22;;;;;;;7.40;100.00;102080.53;4972716;28;20026;-88
2023/04/16 03:05:54;;;;;;;11.55;5.07;;;;;;;7.37;100.00;102080.66;5007188;28;20068;-88
2023/04/16 03:08:19;;;;;;;9.10;4.88;;;;;;;7.40;100.00;102085.06;4990697;28;20057;-89
2023/04/16 03:10:45;;;;;;;12.45;5.70;;;;;;;7.37;100.00;102077.97;5005565;28;20077;-86
2023/04/16 03:13:10;;;;;;;9.98;5.32;;;;;;;7.35;100.00;102077.13;4987175;28;20054;-87
2023/04/16 03:15:36;;;;;;;10.43;5.43;;;;;;;7.40;100.00;102085.94;4987524;28;20062;-86
2023/04/16 03:18:01;;;;;;;12.00;5.60;;;;;;;7.40;100.00;102087.78;4986892;28;20444;-86
2023/04/16 03:20:27;;;;;;;13.68;6.18;;;;;;;7.40;100.00;102099.47;4987605;28;20490;-90
2023/04/16 03:22:52;;;;;;;14.05;7.00;;;;;;;7.41;100.00;102105.78;4970743;28;20038;-86
2023/04/16 03:25:18;;;;;;;16.70;7.22;;;;;;;7.35;100.00;102095.19;4987272;28;20104;-87
2023/04/16 03:27:43;;;;;;;15.98;6.35;;;;;;;7.38;100.00;102095.97;4984946;28;20052;-87
2023/04/16 03:30:11;;;;;;;14.30;6.75;;;;;;;7.40;100.00;102098.59;4975522;28;20034;-86
2023/04/16 03:32:37;;;;;;;14.18;7.60;;;;;;;7.44;100.00;102102.97;4985883;28;20042;-85
2023/04/16 03:35:04;;;;;;;15.90;8.02;;;;;;;7.40;100.00;102110.31;4986758;28;20414;-87
2023/04/16 03:37:30;;;;;;;18.75;8.32;;;;;;;7.37;100.00;102106.88;4970785;28;20045;-85
2023/04/16 03:39:55;;;;;;;13.82;7.05;;;;;;;7.34;100.00;102094.31;4969428;28;20035;-88
2023/04/16 03:42:20;;;;;;;13.20;7.50;;;;;;;7.38;100.00;102104.09;5004067;28;20397;-88
2023/04/16 03:44:46;;;;;;;16.00;7.50;;;;;;;7.31;100.00;102090.84;4969987;28;20038;-87
2023/04/16 03:47:13;;;;;;;14.85;7.45;;;;;;;7.39;100.00;102099.56;4986587;28;20030;-87
2023/04/16 03:49:38;;;;;;;14.50;7.68;;;;;;;7.39;100.00;102094.13;4987360;28;20129;-89
2023/04/16 03:52:04;;;;;;;17.80;7.57;;;;;;;7.37;100.00;102091.50;4973013;28;20030;-88
2023/04/16 03:54:30;;;;;;;15.00;7.35;;;;;;;7.43;100.00;102103.91;4989727;28;20026;-89
2023/04/16 03:57:06;;;;;;;17.17;8.80;;;;;;;7.45;100.00;102093.88;4997241;28;20042;-86
2023/04/16 03:59:32;;;;;;;20.00;8.43;;;;;;;7.47;100.00;102105.56;4986766;28;20129;-87
2023/04/16 04:01:58;;;;;;;17.60;9.25;;;;;;;7.44;100.00;102105.66;4992836;28;20041;-88
2023/04/16 04:04:24;;;;;;;14.48;7.97;;;;;;;7.43;100.00;102103.91;5008441;28;20049;-88
2023/04/16 04:06:49;;;;;;;18.55;8.55;;;;;;;7.43;100.00;102098.50;4994158;28;20129;-87
2023/04/16 04:09:15;;;;;;;14.27;8.32;;;;;;;7.41;100.00;102101.28;5009088;28;20037;-90
2023/04/16 04:11:42;;;;;;;20.85;9.02;;;;;;;7.41;100.00;102106.69;4999283;28;20077;-86
2023/04/16 04:14:07;;;;;;;20.17;9.70;;;;;;;7.38;100.00;102100.50;4993948;28;20391;-88
2023/04/16 04:16:33;;;;;;;21.00;9.40;;;;;;;7.39;100.00;102096.84;5008695;28;20080;-89
2023/04/16 04:18:59;;;;;;;19.98;9.85;;;;;;;7.38;100.00;102098.66;4993429;28;20045;-88
2023/04/16 04:21:27;;;;;;;21.55;9.00;;;;;;;7.38;100.00;102108.63;4993265;28;20069;-89
2023/04/16 04:23:52;;;;;;;19.23;8.70;;;;;;;7.37;100.00;102105.03;5008314;28;20128;-87
2023/04/16 04:26:18;;;;;;;21.33;10.57;;;;;;;7.34;100.00;102102.44;4999580;28;20125;-87
2023/04/16 04:28:43;;;;;;;17.23;9.60;;;;;;;7.32;100.00;102108.84;4990522;28;20037;-86
2023/04/16 04:31:09;;;;;;;18.42;8.85;;;;;;;7.31;100.00;102107.97;5008332;28;20042;-88
2023/04/16 04:33:34;;;;;;;17.77;8.25;;;;;;;7.34;100.00;102113.25;4985270;28;20026;-87
2023/04/16 04:36:00;;;;;;;15.13;8.20;;;;;;;7.32;100.00;102114.25;4989911;28;20069;-86
2023/04/16 04:38:26;;;;;;;20.92;8.95;;;;;;;7.32;100.00;102114.25;4989593;28;20486;-88
2023/04/16 04:40:52;;;;;;;22.42;8.38;;;;;;;7.33;100.00;102121.44;4989598;28;20042;-87
2023/04/16 04:43:19;;;;;;;18.17;9.07;;;;;;;7.31;100.00;102118.78;4991911;28;20060;-87
2023/04/16 04:45:45;;;;;;;20.90;8.80;;;;;;;7.27;100.00;102116.25;4989309;28;20138;-87
2023/04/16 04:48:12;;;;;;;14.90;8.50;;;;;;;7.32;100.00;102130.50;4973502;28;20030;-86
2023/04/16 04:50:37;;;;;;;18.50;9.27;;;;;;;7.32;100.00;102126.00;4973825;28;20061;-89
2023/04/16 04:53:08;;;;;;;17.63;7.53;;;;;;;7.30;100.00;102127.84;4990175;28;20482;-87
2023/04/16 04:55:36;;;;;;;21.95;9.95;;;;;;;7.30;100.00;102125.16;4972479;28;20449;-87
2023/04/16 04:58:02;;;;;;;18.73;8.73;;;;;;;7.31;100.00;102129.59;4988970;28;20351;-86
2023/04/16 05:00:28;;;;;;;22.45;8.98;;;;;;;7.29;100.00;102125.22;5003832;28;20034;-86
2023/04/16 05:02:54;;;;;;;18.05;8.40;;;;;;;7.26;100.00;102114.50;5006088;28;20548;-87
2023/04/16 05:05:20;;;;;;;25.08;9.18;;;;;;;7.29;100.00;102128.81;4988950;28;20109;-87
2023/04/16 05:07:45;;;;;;;16.30;7.70;;;;;;;7.32;100.00;102134.09;4989838;28;20061;-87
2023/04/16 05:10:11;;;;;;;17.63;9.20;;;;;;;7.31;100.00;102131.44;4989330;28;20066;-86
2023/04/16 05:12:36;;;;;;;20.38;9.35;;;;;;;7.27;100.00;102113.53;4987975;28;20041;-87
2023/04/16 05:15:01;;;;;;;17.15;9.27;;;;;;;7.27;100.00;102124.38;4989789;28;20105;-87
2023/04/16 05:17:27;;;;;;;13.18;8.57;;;;;;;7.29;100.00;102131.50;4988839;28;20030;-87
2023/04/16 05:19:52;;;;;;;15.73;8.40;;;;;;;7.30;100.00;102133.25;4972161;28;20030;-87
2023/04/16 05:22:18;;;;;;;20.20;10.02;;;;;;;7.31;100.00;102132.31;4989498;28;20035;-87
2023/04/16 05:24:44;;;;;;;19.77;9.70;;;;;;;7.32;100.00;102142.22;4988783;28;20022;-86
2023/04/16 05:27:09;;;;;;;21.60;8.73;;;;;;;7.30;100.00;102135.09;4988728;28;20064;-85
2023/04/16 05:29:34;;;;;;;19.50;9.15;;;;;;;7.31;100.00;102137.72;4987012;28;20034;-87
2023/04/16 05:32:00;;;;;;;19.38;9.07;;;;;;;7.32;100.00;102136.81;4987734;28;20022;-86
2023/04/16 05:34:26;;;;;;;18.90;8.70;;;;;;;7.33;100.00;102140.41;4972364;28;20034;-87
2023/04/16 05:36:51;;;;;;;18.30;9.40;;;;;;;7.34;100.00;102143.03;4988681;28;20550;-87
2023/04/16 05:39:17;;;;;;;18.60;10.07;;;;;;;7.37;100.00;102150.19;4988677;28;20324;-87
2023/04/16 05:41:42;;;;;;;19.83;9.50;;;;;;;7.39;100.00;102151.00;4987961;28;20049;-87
2023/04/16 05:44:08;;;;;;;19.13;8.98;;;;;;;7.40;100.00;102159.03;4996229;28;20660;-88
2023/04/16 05:46:33;;;;;;;23.77;9.35;;;;;;;7.38;100.00;102154.66;4988992;28;20406;-87
2023/04/16 05:48:59;;;;;;;24.83;9.65;;;;;;;7.39;100.00;102159.09;4970952;28;20139;-87
2023/04/16 05:51:26;;;;;;;19.83;10.82;;;;;;;7.35;100.00;102160.16;4971409;28;20348;-86
2023/04/16 05:53:51;;;;;;;21.05;10.00;;;;;;;7.34;100.00;102162.00;4996649;28;20034;-86
2023/04/16 05:56:17;;;;;;;27.83;11.60;;;;;;;7.36;100.00;102162.81;4990462;28;20516;-88
2023/04/16 05:58:42;;;;;;;19.90;10.05;;;;;;;7.37;100.00;102172.72;4995807;28;20077;-86
2023/04/16 06:01:10;;;;;;;22.95;10.60;;;;;;;7.42;100.00;102180.66;4989279;28;20361;-88
2023/04/16 06:03:35;;;;;;;22.50;9.90;;;;;;;7.42;100.00;102172.53;4968840;28;20112;-88
2023/04/16 06:06:01;;;;;;;21.23;10.85;;;;;;;7.40;100.00;102167.16;4987215;28;20310;-88
2023/04/16 06:08:26;;;;;;;21.48;9.95;;;;;;;7.39;100.00;102167.22;4986637;28;20427;-86
2023/04/16 06:10:52;;;;;;;23.63;11.10;;;;;;;7.39;100.00;102178.06;4970311;28;20030;-86
2023/04/16 06:13:17;;;;;;;26.42;9.98;;;;;;;7.38;100.00;102176.31;4982425;28;20109;-86
2023/04/16 06:15:42;;;;;;;23.58;10.55;;;;;;;7.40;100.00;102178.00;4969792;28;20342;-86
2023/04/16 06:18:08;;;;;;;24.30;9.93;;;;;;;7.44;100.00;102170.66;4986408;28;20034;-86
2023/04/16 06:20:33;;;;;;;23.55;11.80;;;;;;;7.45;100.00;102168.81;4987948;28;20026;-87
2023/04/16 06:22:58;;;;;;;25.05;11.52;;;;;;;7.48;100.00;102180.41;4971072;28;20553;-85
2023/04/16 06:25:24;;;;;;;27.80;10.93;;;;;;;7.50;100.00;102174.94;4985925;28;20037;-87
2023/04/16 06:27:49;;;;;;;20.20;10.38;;;;;;;7.50;100.00;102181.22;4984792;28;20593;-88
2023/04/16 06:30:15;;;;;;;26.48;10.90;;;;;;;7.54;100.00;102179.28;4986509;28;20470;-86
2023/04/16 06:32:43;;;;;;;27.23;11.77;;;;;;;7.55;100.00;102173.81;4969823;28;20137;-86
2023/04/16 06:35:09;;;;;;;25.58;10.57;;;;;;;7.60;100.00;102182.66;4986541;28;20085;-86
2023/04/16 06:37:34;;;;;;;20.48;10.68;;;;;;;7.62;100.00;102188.00;4997031;28;20125;-87
2023/04/16 06:40:00;;;;;;;27.00;10.75;;;;;;;7.62;100.00;102183.47;4986479;28;20049;-87
2023/04/16 06:42:26;;;;;;;20.13;10.13;;;;;;;7.64;100.00;102188.81;4995386;28;20029;-88
2023/04/16 06:44:51;;;;;;;25.38;11.07;;;;;;;7.63;100.00;102187.94;4985360;28;20118;-87
2023/04/16 06:47:17;;;;;;;28.98;11.82;;;;;;;7.67;100.00;102195.00;4985635;28;20348;-87
2023/04/16 06:49:42;;;;;;;29.88;11.20;;;;;;;7.66;100.00;102203.22;4986268;28;20041;-86
2023/04/16 06:52:07;;;;;;;28.58;12.02;;;;;;;7.62;100.00;102196.13;4970382;28;20100;-88
2023/04/16 06:54:33;;;;;;;32.25;11.63;;;;;;;7.63;100.00;102211.44;4986341;28;20073;-86
2023/04/16 06:56:58;;;;;;;24.58;11.70;;;;;;;7.63;100.00;102200.59;4977412;28;20076;-86
2023/04/16 06:59:23;;;;;;;27.67;11.50;;;;;;;7.66;100.00;102217.63;4989021;28;20415;-88
2023/04/16 07:01:50;;;;;;;23.80;12.35;;;;;;;7.67;100.00;102210.38;4987484;28;20446;-86
2023/04/16 07:04:15;;;;;;;31.45;12.75;;;;;;;7.72;100.00;102213.78;4970529;28;20062;-89
2023/04/16 07:06:41;;;;;;;25.48;11.60;;;;;;;7.69;100.00;102216.63;4987811;28;20167;-87
2023/04/16 07:09:07;;;;;;;25.88;11.00;;;;;;;7.68;100.00;102220.28;4971543;28;20108;-87
2023/04/16 07:11:33;;;;;;;26.98;11.45;;;;;;;7.73;100.00;102228.22;4988320;28;20085;-87
2023/04/16 07:13:58;;;;;;;27.58;10.90;;;;;;;7.73;100.00;102222.81;4979110;28;20029;-87
2023/04/16 07:16:23;;;;;;;27.17;12.00;;;;;;;7.72;100.00;102223.75;4986318;28;20533;-87
2023/04/16 07:18:49;;;;;;;31.20;12.77;;;;;;;7.72;100.00;102230.06;4987303;28;20498;-88
2023/04/16 07:21:14;;;;;;;27.25;12.27;;;;;;;7.72;100.00;102226.47;4987058;28;20048;-86
2023/04/16 07:23:40;;;;;;;30.33;12.88;;;;;;;7.70;100.00;102229.25;4987249;28;20034;-87
2023/04/16 07:26:06;;;;;;;35.90;13.65;;;;;;;7.70;100.00;102231.94;4969719;28;20652;-86
2023/04/16 07:28:31;;;;;;;28.25;13.55;;;;;;;7.68;100.00;102239.22;4995558;28;20490;-86
2023/04/16 07:30:56;;;;;;;36.83;13.80;;;;;;;7.72;100.00;102229.16;4987443;28;20110;-86
2023/04/16 07:33:21;;;;;;;38.58;14.45;;;;;;;7.73;100.00;102236.34;4990276;28;20029;-88
2023/04/16 07:35:47;;;;;;;33.50;12.95;;;;;;;7.78;100.00;102237.06;5002424;28;20470;-86
2023/04/16 07:38:13;;;;;;;32.28;15.00;;;;;;;7.77;100.00;102238.00;5010106;28;20045;-87
2023/04/16 07:40:38;;;;;;;32.58;13.15;;;;;;;7.77;100.00;102238.88;5010176;28;20406;-86
2023/04/16 07:43:04;;;;;;;33.13;13.02;;;;;;;7.75;100.00;102234.47;5006673;28;20032;-88
2023/04/16 07:45:29;;;;;;;32.83;13.50;;;;;;;7.84;100.00;102247.69;4993141;28;20520;-86
2023/04/16 07:47:55;;;;;;;24.23;12.45;;;;;;;7.88;100.00;102246.59;4990112;28;20038;-87
2023/04/16 07:50:20;;;;;;;36.45;14.60;;;;;;;7.90;100.00;102259.16;4990320;28;20101;-86
2023/04/16 07:52:46;;;;;;;32.45;13.73;;;;;;;7.91;100.00;102254.59;5005616;28;20045;-88
2023/04/16 07:55:12;;;;;;;33.45;14.40;;;;;;;7.90;100.00;102244.72;4992209;28;20038;-88
2023/04/16 07:57:37;;;;;;;31.45;13.80;;;;;;;7.95;100.00;102253.56;4988414;28;20354;-87
2023/04/16 08:00:04;;;;;;;40.40;14.43;;;;;;;8.01;100.00;102263.25;5000877;28;20060;-86
2023/04/16 08:02:38;;;;;;;35.67;14.48;;;;;;;8.00;100.00;102264.22;5011351;28;20080;-86
2023/04/16 08:05:04;;;;;;;32.85;14.70;;;;;;;7.99;100.00;102268.75;5011452;28;20038;-86
2023/04/16 08:07:29;;;;;;;34.78;14.13;;;;;;;7.98;100.00;102271.53;5004070;28;20030;-87
2023/04/16 08:09:54;;;;;;;39.50;15.00;;;;;;;8.02;100.00;102265.03;4974070;28;20038;-86
2023/04/16 08:12:20;;;;;;;39.78;14.82;;;;;;;8.01;100.00;102271.38;5001304;28;20478;-87
2023/04/16 08:14:46;;;;;;;37.50;13.75;;;;;;;8.06;100.00;102274.81;4998880;28;20034;-87
2023/04/16 08:17:13;;;;;;;36.83;14.48;;;;;;;8.10;100.00;102282.75;5008264;28;20486;-86
2023/04/16 08:19:38;;;;;;;35.22;13.57;;;;;;;8.08;100.00;102273.81;4986760;28;20023;-87
2023/04/16 08:22:04;;;;;;;33.60;13.95;;;;;;;8.11;100.00;102283.63;4979871;28;20050;-88
2023/04/16 08:24:29;;;;;;;42.97;14.18;;;;;;;8.14;100.00;102289.81;4986404;28;20066;-85
2023/04/16 08:26:55;;;;;;;32.45;13.85;;;;;;;8.12;100.00;102286.31;4989207;28;20113;-86
2023/04/16 08:29:20;;;;;;;37.33;14.70;;;;;;;8.15;100.00;102288.00;4988527;28;20026;-86
2023/04/16 08:31:46;;;;;;;43.90;14.93;;;;;;;8.17;100.00;102284.28;4989020;28;20430;-88
2023/04/16 08:34:12;;;;;;;41.95;14.43;;;;;;;8.16;100.00;102289.78;4991275;28;20050;-87
2023/04/16 08:36:37;;;;;;;39.53;14.82;;;;;;;8.26;100.00;102301.16;4974089;28;20034;-87
2023/04/16 08:39:04;;;;;;;31.67;13.65;;;;;;;8.25;100.00;102293.94;4973069;28;20045;-88
2023/04/16 08:41:31;;;;;;;32.25;13.88;;;;;;;8.32;100.00;102298.19;4993130;28;20025;-87
2023/04/16 08:43:59;;;;;;;36.70;13.38;;;;;;;8.31;100.00;102294.59;5003527;28;20034;-87
2023/04/16 08:46:25;;;;;;;37.58;14.18;;;;;;;8.30;100.00;102295.56;4989653;28;20037;-86
2023/04/16 08:48:56;;;;;;;39.15;16.08;;;;;;;8.35;100.00;102307.09;4989307;28;20454;-85
2023/04/16 08:51:22;;;;;;;36.50;15.32;;;;;;;8.35;100.00;102301.66;4988693;28;20034;-88
2023/04/16 08:53:52;;;;;;;33.70;13.90;;;;;;;8.41;100.00;102300.56;4989010;28;20141;-88
2023/04/16 08:56:20;;;;;;;35.13;14.82;;;;;;;8.47;100.00;102308.44;4972225;28;20053;-88
2023/04/16 08:58:47;;;;;;;34.00;14.23;;;;;;;8.49;100.00;102300.28;4997145;28;20241;-86
2023/04/16 09:01:13;;;;;;;32.22;14.70;;;;;;;8.52;100.00;102306.44;4987841;28;20545;-86
2023/04/16 09:03:40;;;;;;;38.13;14.60;;;;;;;8.57;100.00;102315.25;4990529;28;20038;-86
2023/04/16 09:06:06;;;;;;;33.45;13.95;;;;;;;8.55;100.00;102306.31;4990654;28;20482;-89
2023/04/16 09:08:34;;;;;;;32.50;14.18;;;;;;;8.63;100.00;102314.16;4998834;28;20276;-88
2023/04/16 09:11:00;;;;;;;40.88;15.60;;;;;;;8.64;100.00;102308.66;5006688;28;20067;-88
2023/04/16 09:13:25;;;;;;;33.90;13.70;;;;;;;8.72;100.00;102316.50;4983052;28;20084;-86
2023/04/16 09:15:55;;;;;;;30.90;13.25;;;;;;;8.76;100.00;102314.50;4987429;28;20038;-89
2023/04/16 09:18:22;;;;;;;33.42;13.65;;;;;;;8.78;100.00;102321.66;4972601;28;20435;-86
2023/04/16 09:20:49;;;;;;;33.97;12.85;;;;;;;8.78;100.00;102315.34;5003839;28;20108;-89
2023/04/16 09:23:15;;;;;;;33.60;13.07;;;;;;;8.79;100.00;102323.41;4972308;28;20372;-85
2023/04/16 09:25:40;;;;;;;27.52;12.70;;;;;;;8.79;100.00;102327.97;4989726;28;20026;-87
2023/04/16 09:28:06;;;;;;;28.25;12.60;;;;;;;8.79;100.00;102320.72;4971747;28;20035;-89
2023/04/16 09:30:32;;;;;;;42.83;14.27;;;;;;;8.88;100.00;102328.47;5002198;28;20442;-88
2023/04/16 09:33:16;;;;;;;27.25;12.93;;;;;;;8.91;100.00;102335.63;5006442;28;20037;-88
2023/04/16 09:36:00;;;;;;;37.10;13.43;;;;;;;8.93;100.00;102328.28;4990825;28;20176;-87
2023/04/16 09:38:44;;;;;;;32.88;12.93;;;;;;;8.90;100.00;102336.53;4989806;28;20100;-86
2023/04/16 09:41:09;;;;;;;29.30;13.63;;;;;;;8.88;100.00;102338.44;4990076;28;20324;-87
2023/04/16 09:43:35;;;;;;;25.63;11.90;;;;;;;8.82;100.00;102342.28;4999301;28;20038;-86
2023/04/16 09:46:03;;;;;;;31.45;13.32;;;;;;;8.87;100.00;102348.41;4987720;28;20479;-87
2023/04/16 09:48:32;;;;;;;28.63;12.90;;;;;;;8.90;100.00;102345.56;4988023;28;20033;-90
2023/04/16 09:50:59;;;;;;;30.23;12.68;;;;;;;8.98;100.00;102350.69;4988118;28;20034;-88
2023/04/16 09:53:26;;;;;;;26.70;12.25;;;;;;;9.02;100.00;102355.03;4987698;28;20041;-88
2023/04/16 09:55:55;;;;;;;33.75;14.30;;;;;;;8.96;100.00;102349.00;4971627;28;20061;-87
2023/04/16 09:58:23;;;;;;;34.63;13.23;;;;;;;8.93;100.00;102348.16;5000182;28;20034;-88
2023/04/16 10:00:48;;;;;;;32.58;13.23;;;;;;;8.96;100.00;102352.59;4987541;28;20458;-88
2023/04/16 10:03:14;;;;;;;28.52;12.77;;;;;;;9.01;100.00;102360.53;4977558;28;20042;-85
2023/04/16 10:05:40;;;;;;;32.17;13.38;;;;;;;9.00;100.00;102351.50;4968924;28;20065;-87
2023/04/16 10:08:16;;;;;;;31.77;13.63;;;;;;;9.02;100.00;102354.16;4969906;28;20495;-87
2023/04/16 10:10:42;;;;;;;25.80;13.10;;;;;;;8.98;100.00;102347.09;4973638;28;20482;-85
2023/04/16 10:13:07;;;;;;;28.90;13.05;;;;;;;9.07;100.00;102363.88;4999395;28;20450;-88
2023/04/16 10:15:33;;;;;;;40.22;13.75;;;;;;;9.07;100.00;102355.72;4986510;28;20038;-87
2023/04/16 10:17:59;;;;;;;36.75;14.30;;;;;;;9.04;100.00;102353.13;4987513;28;20483;-87
2023/04/16 10:20:25;;;;;;;28.60;12.88;;;;;;;9.01;100.00;102360.53;4986881;28;20486;-88
2023/04/16 10:22:51;;;;;;;29.83;14.13;;;;;;;9.06;100.00;102356.69;4987718;28;20026;-86
2023/04/16 10:25:17;;;;;;;31.17;13.43;;;;;;;9.05;100.00;102365.78;4969961;28;20355;-87
2023/04/16 10:27:43;;;;;;;27.15;13.35;;;;;;;9.01;100.00;102358.69;4978159;28;20045;-87
2023/04/16 10:30:10;;;;;;;25.60;13.18;;;;;;;9.04;100.00;102357.69;4998115;28;20121;-87
2023/04/16 10:32:37;;;;;;;27.88;12.40;;;;;;;9.06;100.00;102361.22;5007613;28;20034;-86
2023/04/16 10:35:03;;;;;;;32.17;14.35;;;;;;;9.09;100.00;102366.50;5007952;28;20034;-88
2023/04/16 10:37:30;;;;;;;28.83;13.13;;;;;;;9.16;100.00;102370.75;4988007;28;20026;-87
2023/04/16 10:39:56;;;;;;;26.23;13.10;;;;;;;9.11;100.00;102356.47;4987450;28;20092;-87
2023/04/16 10:42:22;;;;;;;26.85;11.95;;;;;;;9.18;100.00;102367.00;4970825;28;20038;-86
2023/04/16 10:44:47;;;;;;;32.33;16.08;;;;;;;9.20;100.00;102372.38;4987335;28;20045;-83
2023/04/16 10:47:13;;;;;;;29.67;12.80;;;;;;;9.22;100.00;102373.19;4970163;28;20030;-83
2023/04/16 10:49:39;;;;;;;23.88;13.32;;;;;;;9.27;100.00;102370.28;4971081;28;20133;-84
2023/04/16 10:52:15;;;;;;;28.42;14.70;;;;;;;9.26;100.00;102379.38;4988021;28;20065;-84
2023/04/16 10:54:42;;;;;;;29.33;14.32;;;;;;;9.22;100.00;102369.59;4974046;28;20081;-84
2023/04/16 10:57:13;;;;;;;27.40;12.65;;;;;;;9.25;100.00;102373.06;4986836;28;20502;-84
2023/04/16 10:59:42;;;;;;;28.33;12.75;;;;;;;9.24;100.00;102374.03;4986421;28;20541;-84
2023/04/16 11:02:13;;;;;;;29.40;13.45;;;;;;;9.29;100.00;102368.41;4979201;28;20469;-83
2023/04/16 11:04:42;;;;;;;28.27;13.30;;;;;;;9.29;100.00;102369.28;4971328;28;20414;-84
2023/04/16 11:07:13;;;;;;;27.85;13.68;;;;;;;9.33;100.00;102373.66;4975909;28;20038;-83
2023/04/16 11:09:51;;;;;;;33.67;13.63;;;;;;;9.39;100.00;102367.06;4973977;28;20052;-84